sensor_id;sensor_type;location;lat;lon;timestamp;P1;durP1;ratioP1;P2;durP2;ratioP2
57627;SDS011;43451;49.060;10.616;2022-10-16T00:00:39;4.15;;;2.40;;
57627;SDS011;43451;49.060;10.616;2022-10-16T00:03:06;6.40;;;2.78;;
57627;SDS011;43451;49.060;10.616;2022-10-16T00:05:33;3.35;;;2.45;;
57627;SDS011;43451;49.060;10.616;2022-10-16T00:08:02;4.00;;;2.58;;
57627;SDS011;43451;49.060;10.616;2022-10-16T00:10:28;4.15;;;2.30;;
57627;SDS011;43451;49.060;10.616;2022-10-16T00:12:54;4.25;;;2.50;;
57627;SDS011;43451;49.060;10.616;2022-10-16T00:15:19;4.55;;;2.40;;
57627;SDS011;43451;49.060;10.616;2022-10-16T00:17:44;3.40;;;2.30;;
57627;SDS011;43451;49.060;10.616;2022-10-16T00:20:10;2.65;;;2.40;;
57627;SDS011;43451;49.060;10.616;2022-10-16T00:22:35;3.42;;;2.50;;
57627;SDS011;43451;49.060;10.616;2022-10-16T00:25:01;8.85;;;2.38;;
57627;SDS011;43451;49.060;10.616;2022-10-16T00:27:26;6.13;;;2.40;;
57627;SDS011;43451;49.060;10.616;2022-10-16T00:29:52;5.43;;;1.90;;
57627;SDS011;43451;49.060;10.616;2022-10-16T00:32:18;3.78;;;2.22;;
57627;SDS011;43451;49.060;10.616;2022-10-16T00:34:44;4.07;;;2.20;;
57627;SDS011;43451;49.060;10.616;2022-10-16T00:37:09;5.63;;;2.00;;
57627;SDS011;43451;49.060;10.616;2022-10-16T00:39:35;3.80;;;2.22;;
57627;SDS011;43451;49.060;10.616;2022-10-16T00:42:00;4.90;;;2.28;;
57627;SDS011;43451;49.060;10.616;2022-10-16T00:50:24;5.57;;;2.30;;
57627;SDS011;43451;49.060;10.616;2022-10-16T00:52:55;2.47;;;1.90;;
57627;SDS011;43451;49.060;10.616;2022-10-16T00:55:21;3.75;;;2.15;;
57627;SDS011;43451;49.060;10.616;2022-10-16T00:57:47;3.03;;;1.95;;
57627;SDS011;43451;49.060;10.616;2022-10-16T01:00:19;4.93;;;2.10;;
57627;SDS011;43451;49.060;10.616;2022-10-16T01:02:51;2.83;;;1.90;;
57627;SDS011;43451;49.060;10.616;2022-10-16T01:05:19;2.95;;;2.00;;
57627;SDS011;43451;49.060;10.616;2022-10-16T01:15:41;5.20;;;2.10;;
57627;SDS011;43451;49.060;10.616;2022-10-16T01:20:51;3.17;;;2.15;;
57627;SDS011;43451;49.060;10.616;2022-10-16T01:23:27;2.50;;;2.10;;
57627;SDS011;43451;49.060;10.616;2022-10-16T01:26:09;3.72;;;2.08;;
57627;SDS011;43451;49.060;10.616;2022-10-16T01:28:59;2.97;;;2.30;;
57627;SDS011;43451;49.060;10.616;2022-10-16T01:31:33;5.90;;;2.20;;
57627;SDS011;43451;49.060;10.616;2022-10-16T01:36:44;3.88;;;2.40;;
57627;SDS011;43451;49.060;10.616;2022-10-16T01:39:13;5.45;;;2.10;;
57627;SDS011;43451;49.060;10.616;2022-10-16T01:41:43;5.20;;;2.33;;
57627;SDS011;43451;49.060;10.616;2022-10-16T01:44:20;2.40;;;2.20;;
57627;SDS011;43451;49.060;10.616;2022-10-16T01:46:50;3.08;;;2.40;;
57627;SDS011;43451;49.060;10.616;2022-10-16T01:49:18;4.20;;;2.00;;
57627;SDS011;43451;49.060;10.616;2022-10-16T01:51:45;2.97;;;2.20;;
57627;SDS011;43451;49.060;10.616;2022-10-16T01:54:16;5.70;;;2.38;;
57627;SDS011;43451;49.060;10.616;2022-10-16T01:56:45;5.43;;;2.30;;
57627;SDS011;43451;49.060;10.616;2022-10-16T01:59:14;3.92;;;2.50;;
57627;SDS011;43451;49.060;10.616;2022-10-16T02:01:45;2.80;;;2.40;;
57627;SDS011;43451;49.060;10.616;2022-10-16T02:04:20;4.72;;;2.33;;
57627;SDS011;43451;49.060;10.616;2022-10-16T02:06:52;4.18;;;2.45;;
57627;SDS011;43451;49.060;10.616;2022-10-16T02:09:18;6.33;;;2.33;;
57627;SDS011;43451;49.060;10.616;2022-10-16T02:11:44;3.42;;;2.15;;
57627;SDS011;43451;49.060;10.616;2022-10-16T02:14:10;5.30;;;2.35;;
57627;SDS011;43451;49.060;10.616;2022-10-16T02:16:40;2.60;;;2.17;;
57627;SDS011;43451;49.060;10.616;2022-10-16T02:19:08;4.93;;;2.33;;
57627;SDS011;43451;49.060;10.616;2022-10-16T02:21:51;4.20;;;2.25;;
57627;SDS011;43451;49.060;10.616;2022-10-16T02:24:34;2.97;;;2.10;;
57627;SDS011;43451;49.060;10.616;2022-10-16T02:29:39;3.58;;;2.30;;
57627;SDS011;43451;49.060;10.616;2022-10-16T02:32:10;2.30;;;2.10;;
57627;SDS011;43451;49.060;10.616;2022-10-16T02:34:40;4.63;;;2.28;;
57627;SDS011;43451;49.060;10.616;2022-10-16T02:37:06;4.10;;;2.28;;
57627;SDS011;43451;49.060;10.616;2022-10-16T02:39:32;3.38;;;2.15;;
57627;SDS011;43451;49.060;10.616;2022-10-16T02:41:59;2.53;;;2.20;;
57627;SDS011;43451;49.060;10.616;2022-10-16T02:44:24;3.42;;;2.15;;
57627;SDS011;43451;49.060;10.616;2022-10-16T02:46:49;5.13;;;2.38;;
57627;SDS011;43451;49.060;10.616;2022-10-16T02:49:15;2.97;;;2.20;;
57627;SDS011;43451;49.060;10.616;2022-10-16T02:51:40;6.97;;;2.22;;
57627;SDS011;43451;49.060;10.616;2022-10-16T02:54:06;3.90;;;2.30;;
57627;SDS011;43451;49.060;10.616;2022-10-16T02:56:31;4.85;;;2.15;;
57627;SDS011;43451;49.060;10.616;2022-10-16T02:58:57;5.07;;;2.30;;
57627;SDS011;43451;49.060;10.616;2022-10-16T03:01:22;5.97;;;2.20;;
57627;SDS011;43451;49.060;10.616;2022-10-16T03:03:48;3.25;;;2.03;;
57627;SDS011;43451;49.060;10.616;2022-10-16T03:06:14;4.60;;;2.20;;
57627;SDS011;43451;49.060;10.616;2022-10-16T03:08:39;4.10;;;2.10;;
57627;SDS011;43451;49.060;10.616;2022-10-16T03:11:05;5.22;;;2.30;;
57627;SDS011;43451;49.060;10.616;2022-10-16T03:13:30;5.38;;;2.65;;
57627;SDS011;43451;49.060;10.616;2022-10-16T03:15:56;6.03;;;2.10;;
57627;SDS011;43451;49.060;10.616;2022-10-16T03:18:22;5.75;;;2.45;;
57627;SDS011;43451;49.060;10.616;2022-10-16T03:20:47;2.40;;;2.20;;
57627;SDS011;43451;49.060;10.616;2022-10-16T03:23:12;3.55;;;2.35;;
57627;SDS011;43451;49.060;10.616;2022-10-16T03:25:38;3.35;;;2.20;;
57627;SDS011;43451;49.060;10.616;2022-10-16T03:28:04;5.28;;;2.22;;
57627;SDS011;43451;49.060;10.616;2022-10-16T03:30:30;3.53;;;2.10;;
57627;SDS011;43451;49.060;10.616;2022-10-16T03:32:55;2.83;;;2.00;;
57627;SDS011;43451;49.060;10.616;2022-10-16T03:35:21;4.18;;;2.17;;
57627;SDS011;43451;49.060;10.616;2022-10-16T03:37:47;5.45;;;2.20;;
57627;SDS011;43451;49.060;10.616;2022-10-16T03:40:12;3.72;;;2.20;;
57627;SDS011;43451;49.060;10.616;2022-10-16T03:42:38;5.20;;;2.30;;
57627;SDS011;43451;49.060;10.616;2022-10-16T03:45:04;5.05;;;2.10;;
57627;SDS011;43451;49.060;10.616;2022-10-16T03:47:30;3.33;;;2.28;;
57627;SDS011;43451;49.060;10.616;2022-10-16T03:49:57;4.90;;;2.35;;
57627;SDS011;43451;49.060;10.616;2022-10-16T03:52:23;3.78;;;2.45;;
57627;SDS011;43451;49.060;10.616;2022-10-16T03:54:49;4.35;;;2.38;;
57627;SDS011;43451;49.060;10.616;2022-10-16T03:57:14;5.72;;;2.30;;
57627;SDS011;43451;49.060;10.616;2022-10-16T03:59:40;7.90;;;2.38;;
57627;SDS011;43451;49.060;10.616;2022-10-16T04:02:05;3.25;;;2.20;;
57627;SDS011;43451;49.060;10.616;2022-10-16T04:04:31;3.58;;;2.38;;
57627;SDS011;43451;49.060;10.616;2022-10-16T04:06:56;5.00;;;2.40;;
57627;SDS011;43451;49.060;10.616;2022-10-16T04:09:21;3.97;;;2.17;;
57627;SDS011;43451;49.060;10.616;2022-10-16T04:11:47;5.70;;;2.13;;
57627;SDS011;43451;49.060;10.616;2022-10-16T04:14:12;5.88;;;2.20;;
57627;SDS011;43451;49.060;10.616;2022-10-16T04:16:38;2.20;;;2.00;;
57627;SDS011;43451;49.060;10.616;2022-10-16T04:19:03;2.83;;;2.28;;
57627;SDS011;43451;49.060;10.616;2022-10-16T04:21:29;3.13;;;2.30;;
57627;SDS011;43451;49.060;10.616;2022-10-16T04:23:54;4.85;;;2.28;;
57627;SDS011;43451;49.060;10.616;2022-10-16T04:26:19;6.30;;;2.50;;
57627;SDS011;43451;49.060;10.616;2022-10-16T04:28:45;2.88;;;2.25;;
57627;SDS011;43451;49.060;10.616;2022-10-16T04:31:11;3.50;;;2.30;;
57627;SDS011;43451;49.060;10.616;2022-10-16T04:33:36;4.72;;;2.13;;
57627;SDS011;43451;49.060;10.616;2022-10-16T04:36:02;3.40;;;2.28;;
57627;SDS011;43451;49.060;10.616;2022-10-16T04:38:28;6.03;;;2.47;;
57627;SDS011;43451;49.060;10.616;2022-10-16T04:40:54;2.20;;;1.92;;
57627;SDS011;43451;49.060;10.616;2022-10-16T04:43:20;7.47;;;2.50;;
57627;SDS011;43451;49.060;10.616;2022-10-16T04:45:46;3.15;;;2.30;;
57627;SDS011;43451;49.060;10.616;2022-10-16T04:48:11;3.33;;;2.38;;
57627;SDS011;43451;49.060;10.616;2022-10-16T04:50:37;3.97;;;2.15;;
57627;SDS011;43451;49.060;10.616;2022-10-16T04:53:03;4.60;;;2.60;;
57627;SDS011;43451;49.060;10.616;2022-10-16T04:55:28;5.82;;;2.33;;
57627;SDS011;43451;49.060;10.616;2022-10-16T04:57:54;4.20;;;2.50;;
57627;SDS011;43451;49.060;10.616;2022-10-16T05:00:19;4.45;;;2.70;;
57627;SDS011;43451;49.060;10.616;2022-10-16T05:02:45;3.65;;;2.40;;
57627;SDS011;43451;49.060;10.616;2022-10-16T05:05:10;3.38;;;2.30;;
57627;SDS011;43451;49.060;10.616;2022-10-16T05:07:36;2.55;;;2.30;;
57627;SDS011;43451;49.060;10.616;2022-10-16T05:10:02;4.93;;;2.60;;
57627;SDS011;43451;49.060;10.616;2022-10-16T05:12:28;7.07;;;2.78;;
57627;SDS011;43451;49.060;10.616;2022-10-16T05:14:53;5.50;;;2.47;;
57627;SDS011;43451;49.060;10.616;2022-10-16T05:17:23;2.35;;;2.15;;
57627;SDS011;43451;49.060;10.616;2022-10-16T05:19:51;6.43;;;2.50;;
57627;SDS011;43451;49.060;10.616;2022-10-16T05:22:17;6.20;;;2.72;;
57627;SDS011;43451;49.060;10.616;2022-10-16T05:24:42;4.50;;;2.50;;
57627;SDS011;43451;49.060;10.616;2022-10-16T05:27:08;3.75;;;2.38;;
57627;SDS011;43451;49.060;10.616;2022-10-16T05:29:33;6.75;;;2.83;;
57627;SDS011;43451;49.060;10.616;2022-10-16T05:31:59;3.53;;;2.53;;
57627;SDS011;43451;49.060;10.616;2022-10-16T05:34:24;2.60;;;2.30;;
57627;SDS011;43451;49.060;10.616;2022-10-16T05:36:50;6.00;;;2.50;;
57627;SDS011;43451;49.060;10.616;2022-10-16T05:39:16;3.22;;;2.45;;
57627;SDS011;43451;49.060;10.616;2022-10-16T05:41:42;3.65;;;2.38;;
57627;SDS011;43451;49.060;10.616;2022-10-16T05:44:08;4.18;;;2.50;;
57627;SDS011;43451;49.060;10.616;2022-10-16T05:46:33;3.72;;;2.42;;
57627;SDS011;43451;49.060;10.616;2022-10-16T05:48:59;4.30;;;2.90;;
57627;SDS011;43451;49.060;10.616;2022-10-16T05:51:24;5.82;;;2.83;;
57627;SDS011;43451;49.060;10.616;2022-10-16T05:53:50;4.00;;;2.45;;
57627;SDS011;43451;49.060;10.616;2022-10-16T05:56:15;6.60;;;2.72;;
57627;SDS011;43451;49.060;10.616;2022-10-16T05:58:41;4.65;;;2.78;;
57627;SDS011;43451;49.060;10.616;2022-10-16T06:01:09;4.22;;;2.50;;
57627;SDS011;43451;49.060;10.616;2022-10-16T06:03:36;6.38;;;2.60;;
57627;SDS011;43451;49.060;10.616;2022-10-16T06:06:08;3.95;;;2.60;;
57627;SDS011;43451;49.060;10.616;2022-10-16T06:08:41;4.03;;;2.78;;
57627;SDS011;43451;49.060;10.616;2022-10-16T06:11:09;7.28;;;2.53;;
57627;SDS011;43451;49.060;10.616;2022-10-16T06:13:37;9.15;;;2.67;;
57627;SDS011;43451;49.060;10.616;2022-10-16T06:16:06;3.30;;;2.45;;
57627;SDS011;43451;49.060;10.616;2022-10-16T06:18:31;4.40;;;2.72;;
57627;SDS011;43451;49.060;10.616;2022-10-16T06:20:57;5.03;;;2.75;;
57627;SDS011;43451;49.060;10.616;2022-10-16T06:23:23;3.80;;;2.70;;
57627;SDS011;43451;49.060;10.616;2022-10-16T06:25:49;3.75;;;2.80;;
57627;SDS011;43451;49.060;10.616;2022-10-16T06:28:14;3.08;;;2.70;;
57627;SDS011;43451;49.060;10.616;2022-10-16T06:30:40;5.88;;;2.60;;
57627;SDS011;43451;49.060;10.616;2022-10-16T06:33:06;2.95;;;2.33;;
57627;SDS011;43451;49.060;10.616;2022-10-16T06:35:31;3.90;;;2.50;;
57627;SDS011;43451;49.060;10.616;2022-10-16T06:37:57;3.80;;;2.70;;
57627;SDS011;43451;49.060;10.616;2022-10-16T06:40:23;4.85;;;2.38;;
57627;SDS011;43451;49.060;10.616;2022-10-16T06:42:48;2.60;;;2.35;;
57627;SDS011;43451;49.060;10.616;2022-10-16T06:45:14;3.38;;;2.75;;
57627;SDS011;43451;49.060;10.616;2022-10-16T06:47:39;3.88;;;2.92;;
57627;SDS011;43451;49.060;10.616;2022-10-16T06:50:05;4.22;;;2.50;;
57627;SDS011;43451;49.060;10.616;2022-10-16T06:52:33;3.65;;;2.25;;
57627;SDS011;43451;49.060;10.616;2022-10-16T06:54:59;2.53;;;2.33;;
57627;SDS011;43451;49.060;10.616;2022-10-16T06:57:25;3.45;;;2.35;;
57627;SDS011;43451;49.060;10.616;2022-10-16T06:59:51;4.50;;;2.47;;
57627;SDS011;43451;49.060;10.616;2022-10-16T07:02:16;2.78;;;2.08;;
57627;SDS011;43451;49.060;10.616;2022-10-16T07:04:41;5.00;;;2.40;;
57627;SDS011;43451;49.060;10.616;2022-10-16T07:07:07;2.55;;;2.33;;
57627;SDS011;43451;49.060;10.616;2022-10-16T07:09:32;4.32;;;2.70;;
57627;SDS011;43451;49.060;10.616;2022-10-16T07:11:58;3.45;;;2.67;;
57627;SDS011;43451;49.060;10.616;2022-10-16T07:14:23;3.22;;;2.50;;
57627;SDS011;43451;49.060;10.616;2022-10-16T07:16:49;6.60;;;2.42;;
57627;SDS011;43451;49.060;10.616;2022-10-16T07:19:14;4.60;;;2.50;;
57627;SDS011;43451;49.060;10.616;2022-10-16T07:24:11;2.55;;;2.10;;
57627;SDS011;43451;49.060;10.616;2022-10-16T07:26:41;3.90;;;2.40;;
57627;SDS011;43451;49.060;10.616;2022-10-16T07:31:42;3.55;;;2.17;;
57627;SDS011;43451;49.060;10.616;2022-10-16T07:34:09;2.60;;;1.90;;
57627;SDS011;43451;49.060;10.616;2022-10-16T07:36:36;4.68;;;2.00;;
57627;SDS011;43451;49.060;10.616;2022-10-16T07:39:02;4.03;;;1.80;;
57627;SDS011;43451;49.060;10.616;2022-10-16T07:41:28;5.53;;;2.10;;
57627;SDS011;43451;49.060;10.616;2022-10-16T07:43:53;3.85;;;1.85;;
57627;SDS011;43451;49.060;10.616;2022-10-16T07:48:47;2.47;;;1.77;;
57627;SDS011;43451;49.060;10.616;2022-10-16T07:51:21;3.85;;;1.90;;
57627;SDS011;43451;49.060;10.616;2022-10-16T07:53:48;5.13;;;1.90;;
57627;SDS011;43451;49.060;10.616;2022-10-16T07:56:14;4.22;;;1.98;;
57627;SDS011;43451;49.060;10.616;2022-10-16T07:58:41;3.42;;;1.80;;
57627;SDS011;43451;49.060;10.616;2022-10-16T08:01:07;3.42;;;1.70;;
57627;SDS011;43451;49.060;10.616;2022-10-16T08:05:59;3.88;;;1.90;;
57627;SDS011;43451;49.060;10.616;2022-10-16T08:08:26;2.33;;;1.80;;
57627;SDS011;43451;49.060;10.616;2022-10-16T08:10:52;1.75;;;1.60;;
57627;SDS011;43451;49.060;10.616;2022-10-16T08:13:17;1.92;;;1.60;;
57627;SDS011;43451;49.060;10.616;2022-10-16T08:15:43;3.38;;;1.70;;
57627;SDS011;43451;49.060;10.616;2022-10-16T08:18:10;2.67;;;1.70;;
57627;SDS011;43451;49.060;10.616;2022-10-16T08:20:38;6.30;;;1.63;;
57627;SDS011;43451;49.060;10.616;2022-10-16T08:23:04;2.80;;;1.70;;
57627;SDS011;43451;49.060;10.616;2022-10-16T08:25:30;2.40;;;1.63;;
57627;SDS011;43451;49.060;10.616;2022-10-16T08:27:55;2.28;;;1.80;;
57627;SDS011;43451;49.060;10.616;2022-10-16T08:30:21;3.60;;;1.70;;
57627;SDS011;43451;49.060;10.616;2022-10-16T08:32:48;3.05;;;1.77;;
57627;SDS011;43451;49.060;10.616;2022-10-16T08:35:14;2.88;;;1.95;;
57627;SDS011;43451;49.060;10.616;2022-10-16T08:37:41;2.85;;;1.73;;
57627;SDS011;43451;49.060;10.616;2022-10-16T08:40:11;2.10;;;1.80;;
57627;SDS011;43451;49.060;10.616;2022-10-16T08:42:56;3.80;;;1.90;;
57627;SDS011;43451;49.060;10.616;2022-10-16T08:48:13;4.95;;;1.90;;
57627;SDS011;43451;49.060;10.616;2022-10-16T08:50:42;3.05;;;2.00;;
57627;SDS011;43451;49.060;10.616;2022-10-16T08:53:20;2.78;;;1.80;;
57627;SDS011;43451;49.060;10.616;2022-10-16T08:55:52;3.70;;;1.90;;
57627;SDS011;43451;49.060;10.616;2022-10-16T09:00:48;6.15;;;2.20;;
57627;SDS011;43451;49.060;10.616;2022-10-16T09:06:08;2.20;;;1.75;;
57627;SDS011;43451;49.060;10.616;2022-10-16T09:08:50;3.03;;;1.90;;
57627;SDS011;43451;49.060;10.616;2022-10-16T09:11:41;3.28;;;2.00;;
57627;SDS011;43451;49.060;10.616;2022-10-16T09:20:18;4.07;;;2.13;;
57627;SDS011;43451;49.060;10.616;2022-10-16T09:22:53;4.72;;;2.10;;
57627;SDS011;43451;49.060;10.616;2022-10-16T09:25:33;2.83;;;1.98;;
57627;SDS011;43451;49.060;10.616;2022-10-16T09:28:00;3.00;;;1.73;;
57627;SDS011;43451;49.060;10.616;2022-10-16T09:30:28;5.47;;;2.20;;
57627;SDS011;43451;49.060;10.616;2022-10-16T09:32:54;5.63;;;1.80;;
57627;SDS011;43451;49.060;10.616;2022-10-16T09:35:27;3.75;;;1.90;;
57627;SDS011;43451;49.060;10.616;2022-10-16T09:38:01;4.32;;;1.90;;
57627;SDS011;43451;49.060;10.616;2022-10-16T09:40:31;3.15;;;1.80;;
57627;SDS011;43451;49.060;10.616;2022-10-16T09:48:32;2.85;;;1.52;;
57627;SDS011;43451;49.060;10.616;2022-10-16T09:51:03;3.38;;;1.80;;
57627;SDS011;43451;49.060;10.616;2022-10-16T09:53:43;5.50;;;1.85;;
57627;SDS011;43451;49.060;10.616;2022-10-16T09:56:11;4.85;;;1.80;;
57627;SDS011;43451;49.060;10.616;2022-10-16T09:58:43;4.95;;;1.98;;
57627;SDS011;43451;49.060;10.616;2022-10-16T10:01:16;1.73;;;1.63;;
57627;SDS011;43451;49.060;10.616;2022-10-16T10:03:42;4.13;;;2.20;;
57627;SDS011;43451;49.060;10.616;2022-10-16T10:11:39;3.38;;;1.88;;
57627;SDS011;43451;49.060;10.616;2022-10-16T10:14:06;7.53;;;1.90;;
57627;SDS011;43451;49.060;10.616;2022-10-16T10:16:38;6.10;;;1.77;;
57627;SDS011;43451;49.060;10.616;2022-10-16T10:19:04;2.47;;;2.00;;
57627;SDS011;43451;49.060;10.616;2022-10-16T10:21:38;2.67;;;1.58;;
57627;SDS011;43451;49.060;10.616;2022-10-16T10:24:03;3.38;;;1.92;;
57627;SDS011;43451;49.060;10.616;2022-10-16T10:26:30;3.60;;;1.52;;
57627;SDS011;43451;49.060;10.616;2022-10-16T10:29:10;4.90;;;1.88;;
57627;SDS011;43451;49.060;10.616;2022-10-16T10:31:48;1.85;;;1.60;;
57627;SDS011;43451;49.060;10.616;2022-10-16T10:40:45;2.88;;;1.73;;
57627;SDS011;43451;49.060;10.616;2022-10-16T10:45:42;2.95;;;1.88;;
57627;SDS011;43451;49.060;10.616;2022-10-16T10:51:10;2.20;;;1.70;;
57627;SDS011;43451;49.060;10.616;2022-10-16T10:53:44;3.55;;;1.63;;
57627;SDS011;43451;49.060;10.616;2022-10-16T10:56:37;1.83;;;1.63;;
57627;SDS011;43451;49.060;10.616;2022-10-16T11:02:13;2.60;;;1.70;;
57627;SDS011;43451;49.060;10.616;2022-10-16T11:07:31;4.80;;;1.70;;
57627;SDS011;43451;49.060;10.616;2022-10-16T11:10:12;3.85;;;1.70;;
57627;SDS011;43451;49.060;10.616;2022-10-16T11:12:46;2.38;;;1.80;;
57627;SDS011;43451;49.060;10.616;2022-10-16T11:15:39;2.80;;;1.92;;
57627;SDS011;43451;49.060;10.616;2022-10-16T11:18:06;3.67;;;1.80;;
57627;SDS011;43451;49.060;10.616;2022-10-16T11:20:53;4.25;;;1.67;;
57627;SDS011;43451;49.060;10.616;2022-10-16T11:23:30;2.45;;;1.60;;
57627;SDS011;43451;49.060;10.616;2022-10-16T11:26:05;3.97;;;1.63;;
57627;SDS011;43451;49.060;10.616;2022-10-16T11:28:46;2.13;;;1.67;;
57627;SDS011;43451;49.060;10.616;2022-10-16T11:31:19;4.20;;;1.92;;
57627;SDS011;43451;49.060;10.616;2022-10-16T11:39:21;3.45;;;1.60;;
57627;SDS011;43451;49.060;10.616;2022-10-16T11:41:50;3.35;;;1.42;;
57627;SDS011;43451;49.060;10.616;2022-10-16T11:49:49;2.13;;;1.50;;
57627;SDS011;43451;49.060;10.616;2022-10-16T11:57:59;1.65;;;1.55;;
57627;SDS011;43451;49.060;10.616;2022-10-16T12:03:39;4.40;;;1.67;;
57627;SDS011;43451;49.060;10.616;2022-10-16T12:08:58;2.42;;;1.55;;
57627;SDS011;43451;49.060;10.616;2022-10-16T12:14:04;2.65;;;1.60;;
57627;SDS011;43451;49.060;10.616;2022-10-16T12:16:56;2.72;;;1.40;;
57627;SDS011;43451;49.060;10.616;2022-10-16T12:19:25;4.03;;;1.60;;
57627;SDS011;43451;49.060;10.616;2022-10-16T12:21:56;2.45;;;1.30;;
57627;SDS011;43451;49.060;10.616;2022-10-16T12:24:36;2.38;;;1.40;;
57627;SDS011;43451;49.060;10.616;2022-10-16T12:27:06;3.17;;;1.40;;
57627;SDS011;43451;49.060;10.616;2022-10-16T12:29:54;3.85;;;1.60;;
57627;SDS011;43451;49.060;10.616;2022-10-16T12:35:01;3.42;;;1.75;;
57627;SDS011;43451;49.060;10.616;2022-10-16T12:37:33;2.97;;;1.30;;
57627;SDS011;43451;49.060;10.616;2022-10-16T12:40:11;1.77;;;1.40;;
57627;SDS011;43451;49.060;10.616;2022-10-16T12:42:58;3.08;;;1.38;;
57627;SDS011;43451;49.060;10.616;2022-10-16T12:47:50;2.88;;;1.60;;
57627;SDS011;43451;49.060;10.616;2022-10-16T12:50:23;2.80;;;1.73;;
57627;SDS011;43451;49.060;10.616;2022-10-16T12:52:55;1.83;;;1.30;;
57627;SDS011;43451;49.060;10.616;2022-10-16T12:55:21;1.95;;;1.50;;
57627;SDS011;43451;49.060;10.616;2022-10-16T12:58:06;4.87;;;1.27;;
57627;SDS011;43451;49.060;10.616;2022-10-16T13:00:53;2.33;;;1.30;;
57627;SDS011;43451;49.060;10.616;2022-10-16T13:06:38;5.13;;;1.25;;
57627;SDS011;43451;49.060;10.616;2022-10-16T13:11:48;5.95;;;1.70;;
57627;SDS011;43451;49.060;10.616;2022-10-16T13:27:59;2.40;;;1.45;;
57627;SDS011;43451;49.060;10.616;2022-10-16T13:30:25;2.88;;;1.40;;
57627;SDS011;43451;49.060;10.616;2022-10-16T13:33:04;2.22;;;1.70;;
57627;SDS011;43451;49.060;10.616;2022-10-16T13:35:37;3.58;;;1.33;;
57627;SDS011;43451;49.060;10.616;2022-10-16T13:38:12;1.55;;;1.27;;
57627;SDS011;43451;49.060;10.616;2022-10-16T13:43:43;4.50;;;1.50;;
57627;SDS011;43451;49.060;10.616;2022-10-16T13:48:39;4.28;;;1.65;;
57627;SDS011;43451;49.060;10.616;2022-10-16T13:51:15;6.10;;;1.80;;
57627;SDS011;43451;49.060;10.616;2022-10-16T13:53:42;3.90;;;1.35;;
57627;SDS011;43451;49.060;10.616;2022-10-16T13:56:10;1.55;;;1.27;;
57627;SDS011;43451;49.060;10.616;2022-10-16T13:58:40;2.88;;;1.35;;
57627;SDS011;43451;49.060;10.616;2022-10-16T14:01:26;1.70;;;1.40;;
57627;SDS011;43451;49.060;10.616;2022-10-16T14:03:59;2.85;;;1.30;;
57627;SDS011;43451;49.060;10.616;2022-10-16T14:06:30;3.08;;;1.27;;
57627;SDS011;43451;49.060;10.616;2022-10-16T14:09:06;2.97;;;1.48;;
57627;SDS011;43451;49.060;10.616;2022-10-16T14:11:36;1.85;;;1.30;;
57627;SDS011;43451;49.060;10.616;2022-10-16T14:14:11;6.30;;;1.50;;
57627;SDS011;43451;49.060;10.616;2022-10-16T14:16:37;6.00;;;1.67;;
57627;SDS011;43451;49.060;10.616;2022-10-16T14:19:13;7.72;;;2.55;;
57627;SDS011;43451;49.060;10.616;2022-10-16T14:21:40;3.78;;;1.65;;
57627;SDS011;43451;49.060;10.616;2022-10-16T14:24:12;4.68;;;1.60;;
57627;SDS011;43451;49.060;10.616;2022-10-16T14:26:49;3.17;;;1.50;;
57627;SDS011;43451;49.060;10.616;2022-10-16T14:29:18;6.50;;;1.58;;
57627;SDS011;43451;49.060;10.616;2022-10-16T14:34:52;5.18;;;1.50;;
57627;SDS011;43451;49.060;10.616;2022-10-16T14:37:29;3.40;;;1.25;;
57627;SDS011;43451;49.060;10.616;2022-10-16T14:40:03;3.88;;;1.60;;
57627;SDS011;43451;49.060;10.616;2022-10-16T14:42:29;2.25;;;1.40;;
57627;SDS011;43451;49.060;10.616;2022-10-16T14:44:55;4.38;;;1.60;;
57627;SDS011;43451;49.060;10.616;2022-10-16T14:47:22;4.90;;;1.50;;
57627;SDS011;43451;49.060;10.616;2022-10-16T14:49:51;3.80;;;1.30;;
57627;SDS011;43451;49.060;10.616;2022-10-16T14:52:20;5.60;;;1.60;;
57627;SDS011;43451;49.060;10.616;2022-10-16T14:54:49;5.45;;;1.73;;
57627;SDS011;43451;49.060;10.616;2022-10-16T14:57:18;7.40;;;2.00;;
57627;SDS011;43451;49.060;10.616;2022-10-16T14:59:47;3.50;;;1.40;;
57627;SDS011;43451;49.060;10.616;2022-10-16T15:02:30;2.15;;;1.48;;
57627;SDS011;43451;49.060;10.616;2022-10-16T15:05:39;8.23;;;1.70;;
57627;SDS011;43451;49.060;10.616;2022-10-16T15:07:55;5.22;;;1.67;;
57627;SDS011;43451;49.060;10.616;2022-10-16T15:10:21;5.95;;;1.73;;
57627;SDS011;43451;49.060;10.616;2022-10-16T15:17:52;5.30;;;1.60;;
57627;SDS011;43451;49.060;10.616;2022-10-16T15:20:21;3.83;;;1.75;;
57627;SDS011;43451;49.060;10.616;2022-10-16T15:22:51;1.40;;;1.30;;
57627;SDS011;43451;49.060;10.616;2022-10-16T15:30:10;3.05;;;1.40;;
57627;SDS011;43451;49.060;10.616;2022-10-16T15:32:36;3.30;;;1.40;;
57627;SDS011;43451;49.060;10.616;2022-10-16T15:35:01;5.20;;;1.42;;
57627;SDS011;43451;49.060;10.616;2022-10-16T15:37:26;5.78;;;1.40;;
57627;SDS011;43451;49.060;10.616;2022-10-16T15:39:52;7.72;;;1.55;;
57627;SDS011;43451;49.060;10.616;2022-10-16T15:42:17;4.97;;;1.30;;
57627;SDS011;43451;49.060;10.616;2022-10-16T15:44:43;6.47;;;1.63;;
57627;SDS011;43451;49.060;10.616;2022-10-16T15:47:08;2.45;;;1.23;;
57627;SDS011;43451;49.060;10.616;2022-10-16T15:49:34;7.30;;;1.30;;
57627;SDS011;43451;49.060;10.616;2022-10-16T15:51:59;3.28;;;1.40;;
57627;SDS011;43451;49.060;10.616;2022-10-16T15:54:25;6.22;;;1.50;;
57627;SDS011;43451;49.060;10.616;2022-10-16T15:56:50;7.25;;;1.52;;
57627;SDS011;43451;49.060;10.616;2022-10-16T15:59:16;3.80;;;1.27;;
57627;SDS011;43451;49.060;10.616;2022-10-16T16:01:41;2.40;;;1.40;;
57627;SDS011;43451;49.060;10.616;2022-10-16T16:04:06;8.02;;;1.70;;
57627;SDS011;43451;49.060;10.616;2022-10-16T16:06:32;4.70;;;1.45;;
57627;SDS011;43451;49.060;10.616;2022-10-16T16:08:58;4.78;;;1.23;;
57627;SDS011;43451;49.060;10.616;2022-10-16T16:11:24;3.90;;;1.30;;
57627;SDS011;43451;49.060;10.616;2022-10-16T16:13:50;1.92;;;1.20;;
57627;SDS011;43451;49.060;10.616;2022-10-16T16:16:15;7.20;;;1.50;;
57627;SDS011;43451;49.060;10.616;2022-10-16T16:18:42;6.43;;;1.50;;
57627;SDS011;43451;49.060;10.616;2022-10-16T16:21:12;3.17;;;1.50;;
57627;SDS011;43451;49.060;10.616;2022-10-16T16:23:37;4.20;;;1.50;;
57627;SDS011;43451;49.060;10.616;2022-10-16T16:26:08;5.43;;;1.40;;
57627;SDS011;43451;49.060;10.616;2022-10-16T16:28:34;5.57;;;2.05;;
57627;SDS011;43451;49.060;10.616;2022-10-16T16:31:00;3.30;;;1.73;;
57627;SDS011;43451;49.060;10.616;2022-10-16T16:33:26;4.82;;;1.60;;
57627;SDS011;43451;49.060;10.616;2022-10-16T16:35:55;5.28;;;1.65;;
57627;SDS011;43451;49.060;10.616;2022-10-16T16:38:21;2.72;;;1.40;;
57627;SDS011;43451;49.060;10.616;2022-10-16T16:40:47;6.90;;;1.80;;
57627;SDS011;43451;49.060;10.616;2022-10-16T16:43:12;1.98;;;1.65;;
57627;SDS011;43451;49.060;10.616;2022-10-16T16:45:38;5.80;;;1.80;;
57627;SDS011;43451;49.060;10.616;2022-10-16T16:48:03;5.00;;;2.15;;
57627;SDS011;43451;49.060;10.616;2022-10-16T16:50:34;5.07;;;2.28;;
57627;SDS011;43451;49.060;10.616;2022-10-16T16:53:00;9.30;;;2.30;;
57627;SDS011;43451;49.060;10.616;2022-10-16T16:55:26;12.45;;;1.90;;
57627;SDS011;43451;49.060;10.616;2022-10-16T16:57:51;4.30;;;2.03;;
57627;SDS011;43451;49.060;10.616;2022-10-16T17:00:17;4.90;;;1.80;;
57627;SDS011;43451;49.060;10.616;2022-10-16T17:02:42;2.92;;;2.10;;
57627;SDS011;43451;49.060;10.616;2022-10-16T17:05:09;4.10;;;2.03;;